sensor_id;sensor_type;location;lat;lon;timestamp;pressure;altitude;pressure_sealevel;temperature;humidity
56142;BME280;42018;48.588;10.836;2024-01-16T00:02:05;96019.38;;;-0.29;60.38
56142;BME280;42018;48.588;10.836;2024-01-16T00:04:50;96019.06;;;-0.39;60.20
56142;BME280;42018;48.588;10.836;2024-01-16T00:07:39;96019.19;;;-0.53;60.61
56142;BME280;42018;48.588;10.836;2024-01-16T00:10:25;96012.84;;;-0.57;60.98
56142;BME280;42018;48.588;10.836;2024-01-16T00:13:10;96022.97;;;-0.49;60.37
56142;BME280;42018;48.588;10.836;2024-01-16T00:15:56;96023.97;;;-0.50;60.46
56142;BME280;42018;48.588;10.836;2024-01-16T00:18:44;96030.50;;;-0.40;60.27
56142;BME280;42018;48.588;10.836;2024-01-16T00:21:30;96032.25;;;-0.34;60.31
56142;BME280;42018;48.588;10.836;2024-01-16T00:24:15;96036.84;;;-0.11;59.38
56142;BME280;42018;48.588;10.836;2024-01-16T00:27:01;96037.06;;;-0.13;59.41
56142;BME280;42018;48.588;10.836;2024-01-16T00:29:46;96044.34;;;0.04;58.83
56142;BME280;42018;48.588;10.836;2024-01-16T00:32:32;96045.06;;;0.11;58.36
56142;BME280;42018;48.588;10.836;2024-01-16T00:35:17;96046.22;;;0.15;58.16
56142;BME280;42018;48.588;10.836;2024-01-16T00:38:03;96049.97;;;0.19;58.27
56142;BME280;42018;48.588;10.836;2024-01-16T00:40:49;96053.25;;;0.14;58.12
56142;BME280;42018;48.588;10.836;2024-01-16T00:43:34;96045.66;;;-0.12;58.96
56142;BME280;42018;48.588;10.836;2024-01-16T00:46:20;96051.19;;;-0.02;58.69
56142;BME280;42018;48.588;10.836;2024-01-16T00:49:06;96051.66;;;-0.12;58.63
56142;BME280;42018;48.588;10.836;2024-01-16T00:51:52;96052.03;;;-0.08;58.50
56142;BME280;42018;48.588;10.836;2024-01-16T00:54:38;96056.75;;;0.02;58.55
56142;BME280;42018;48.588;10.836;2024-01-16T00:57:24;96063.59;;;-0.04;58.22
56142;BME280;42018;48.588;10.836;2024-01-16T01:00:10;96066.81;;;-0.02;58.10
56142;BME280;42018;48.588;10.836;2024-01-16T01:02:57;96072.44;;;-0.05;58.12
56142;BME280;42018;48.588;10.836;2024-01-16T01:05:43;96076.13;;;-0.13;58.32
56142;BME280;42018;48.588;10.836;2024-01-16T01:08:29;96076.19;;;-0.01;58.26
56142;BME280;42018;48.588;10.836;2024-01-16T01:11:14;96076.47;;;-0.09;58.26
56142;BME280;42018;48.588;10.836;2024-01-16T01:14:00;96081.16;;;0.07;58.02
56142;BME280;42018;48.588;10.836;2024-01-16T01:16:45;96085.41;;;0.20;57.80
56142;BME280;42018;48.588;10.836;2024-01-16T01:19:31;96088.09;;;0.32;57.30
56142;BME280;42018;48.588;10.836;2024-01-16T01:22:17;96091.00;;;0.42;57.02
56142;BME280;42018;48.588;10.836;2024-01-16T01:25:02;96093.69;;;0.54;56.51
56142;BME280;42018;48.588;10.836;2024-01-16T01:27:48;96092.25;;;0.58;56.15
56142;BME280;42018;48.588;10.836;2024-01-16T01:30:33;96090.22;;;0.60;56.18
56142;BME280;42018;48.588;10.836;2024-01-16T01:33:19;96091.34;;;0.64;55.45
56142;BME280;42018;48.588;10.836;2024-01-16T01:36:04;96093.41;;;0.62;55.10
56142;BME280;42018;48.588;10.836;2024-01-16T01:38:50;96089.47;;;0.53;54.83
56142;BME280;42018;48.588;10.836;2024-01-16T01:41:36;96090.06;;;0.55;55.03
56142;BME280;42018;48.588;10.836;2024-01-16T01:44:21;96089.06;;;0.56;54.76
56142;BME280;42018;48.588;10.836;2024-01-16T01:47:08;96101.34;;;0.67;54.64
56142;BME280;42018;48.588;10.836;2024-01-16T01:49:54;96101.94;;;0.51;54.37
56142;BME280;42018;48.588;10.836;2024-01-16T01:52:40;96097.78;;;0.24;54.77
56142;BME280;42018;48.588;10.836;2024-01-16T01:55:27;96096.63;;;0.20;55.29
56142;BME280;42018;48.588;10.836;2024-01-16T01:58:13;96108.00;;;0.26;55.35
56142;BME280;42018;48.588;10.836;2024-01-16T02:00:59;96096.28;;;0.35;55.25
56142;BME280;42018;48.588;10.836;2024-01-16T02:03:46;96101.06;;;0.38;55.00
56142;BME280;42018;48.588;10.836;2024-01-16T02:06:32;96098.53;;;0.32;54.26
56142;BME280;42018;48.588;10.836;2024-01-16T02:09:18;96111.28;;;0.21;54.51
56142;BME280;42018;48.588;10.836;2024-01-16T02:14:50;96117.41;;;0.27;54.98
56142;BME280;42018;48.588;10.836;2024-01-16T02:17:36;96122.44;;;0.29;54.76
56142;BME280;42018;48.588;10.836;2024-01-16T02:20:21;96122.84;;;0.26;54.16
56142;BME280;42018;48.588;10.836;2024-01-16T02:23:07;96121.88;;;0.20;54.19
56142;BME280;42018;48.588;10.836;2024-01-16T02:25:54;96117.06;;;-0.02;54.15
56142;BME280;42018;48.588;10.836;2024-01-16T02:28:39;96125.13;;;-0.60;56.06
56142;BME280;42018;48.588;10.836;2024-01-16T02:31:25;96125.03;;;-0.78;56.78
56142;BME280;42018;48.588;10.836;2024-01-16T02:34:10;96133.66;;;-0.84;56.98
56142;BME280;42018;48.588;10.836;2024-01-16T02:36:56;96141.75;;;-1.06;57.23
56142;BME280;42018;48.588;10.836;2024-01-16T02:39:41;96139.88;;;-1.37;57.84
56142;BME280;42018;48.588;10.836;2024-01-16T02:42:27;96143.28;;;-1.43;57.74
56142;BME280;42018;48.588;10.836;2024-01-16T02:45:13;96136.88;;;-1.47;57.79
56142;BME280;42018;48.588;10.836;2024-01-16T02:47:58;96140.69;;;-1.50;58.00
56142;BME280;42018;48.588;10.836;2024-01-16T02:50:44;96135.69;;;-1.38;57.98
56142;BME280;42018;48.588;10.836;2024-01-16T02:53:30;96138.03;;;-1.23;57.67
56142;BME280;42018;48.588;10.836;2024-01-16T02:56:16;96128.84;;;-1.32;57.23
56142;BME280;42018;48.588;10.836;2024-01-16T02:59:01;96144.44;;;-1.39;57.61
56142;BME280;42018;48.588;10.836;2024-01-16T03:01:47;96146.88;;;-1.37;57.62
56142;BME280;42018;48.588;10.836;2024-01-16T03:04:33;96142.63;;;-1.25;56.73
56142;BME280;42018;48.588;10.836;2024-01-16T03:07:18;96153.25;;;-1.33;55.13
56142;BME280;42018;48.588;10.836;2024-01-16T03:10:04;96146.91;;;-1.64;56.92
56142;BME280;42018;48.588;10.836;2024-01-16T03:12:49;96151.06;;;-1.50;57.32
56142;BME280;42018;48.588;10.836;2024-01-16T03:15:36;96144.50;;;-1.52;57.33
56142;BME280;42018;48.588;10.836;2024-01-16T03:18:21;96150.09;;;-1.55;57.63
56142;BME280;42018;48.588;10.836;2024-01-16T03:21:07;96153.94;;;-1.98;57.12
56142;BME280;42018;48.588;10.836;2024-01-16T03:23:53;96158.34;;;-2.18;56.87
56142;BME280;42018;48.588;10.836;2024-01-16T03:26:40;96169.25;;;-2.69;58.17
56142;BME280;42018;48.588;10.836;2024-01-16T03:29:25;96173.06;;;-2.52;58.63
56142;BME280;42018;48.588;10.836;2024-01-16T03:32:11;96173.88;;;-2.51;59.34
56142;BME280;42018;48.588;10.836;2024-01-16T03:34:57;96182.63;;;-2.59;60.13
56142;BME280;42018;48.588;10.836;2024-01-16T03:37:42;96180.06;;;-2.46;59.95
56142;BME280;42018;48.588;10.836;2024-01-16T03:40:28;96181.06;;;-2.40;59.64
56142;BME280;42018;48.588;10.836;2024-01-16T03:43:19;96181.28;;;-2.28;59.66
56142;BME280;42018;48.588;10.836;2024-01-16T03:46:04;96170.31;;;-2.24;59.12
56142;BME280;42018;48.588;10.836;2024-01-16T03:48:50;96178.88;;;-2.36;58.97
56142;BME280;42018;48.588;10.836;2024-01-16T03:51:35;96185.06;;;-2.24;59.25
56142;BME280;42018;48.588;10.836;2024-01-16T03:54:21;96184.44;;;-2.53;58.87
56142;BME280;42018;48.588;10.836;2024-01-16T03:57:06;96173.25;;;-2.60;59.43
56142;BME280;42018;48.588;10.836;2024-01-16T03:59:52;96170.09;;;-2.55;59.01
56142;BME280;42018;48.588;10.836;2024-01-16T04:02:38;96164.06;;;-2.69;58.99
56142;BME280;42018;48.588;10.836;2024-01-16T04:05:24;96166.22;;;-2.79;59.21
56142;BME280;42018;48.588;10.836;2024-01-16T04:08:09;96173.13;;;-3.00;59.82
56142;BME280;42018;48.588;10.836;2024-01-16T04:10:55;96165.72;;;-3.16;60.51
56142;BME280;42018;48.588;10.836;2024-01-16T04:13:41;96170.53;;;-3.48;61.28
56142;BME280;42018;48.588;10.836;2024-01-16T04:16:26;96170.81;;;-3.29;60.59
56142;BME280;42018;48.588;10.836;2024-01-16T04:19:12;96163.66;;;-3.21;60.48
56142;BME280;42018;48.588;10.836;2024-01-16T04:21:57;96171.16;;;-2.98;59.91
56142;BME280;42018;48.588;10.836;2024-01-16T04:24:43;96179.50;;;-2.96;59.37
56142;BME280;42018;48.588;10.836;2024-01-16T04:27:29;96171.94;;;-2.97;58.88
56142;BME280;42018;48.588;10.836;2024-01-16T04:30:15;96178.78;;;-2.83;58.69
56142;BME280;42018;48.588;10.836;2024-01-16T04:33:00;96183.47;;;-3.06;59.48
56142;BME280;42018;48.588;10.836;2024-01-16T04:35:46;96185.84;;;-3.11;59.35
56142;BME280;42018;48.588;10.836;2024-01-16T04:38:31;96186.75;;;-2.84;59.39
56142;BME280;42018;48.588;10.836;2024-01-16T04:41:18;96185.38;;;-2.67;59.02
56142;BME280;42018;48.588;10.836;2024-01-16T04:44:04;96187.38;;;-2.76;57.65
56142;BME280;42018;48.588;10.836;2024-01-16T04:46:50;96187.56;;;-2.84;58.80
56142;BME280;42018;48.588;10.836;2024-01-16T04:49:35;96194.69;;;-2.93;58.07
56142;BME280;42018;48.588;10.836;2024-01-16T04:52:21;96194.88;;;-3.35;58.55
56142;BME280;42018;48.588;10.836;2024-01-16T04:55:07;96192.84;;;-3.05;59.08
56142;BME280;42018;48.588;10.836;2024-01-16T04:57:53;96190.91;;;-2.90;58.27
56142;BME280;42018;48.588;10.836;2024-01-16T05:00:39;96194.16;;;-2.68;57.96
56142;BME280;42018;48.588;10.836;2024-01-16T05:03:24;96189.63;;;-2.53;57.51
56142;BME280;42018;48.588;10.836;2024-01-16T05:06:14;96191.34;;;-2.80;56.91
56142;BME280;42018;48.588;10.836;2024-01-16T05:09:00;96195.41;;;-3.12;57.16
56142;BME280;42018;48.588;10.836;2024-01-16T05:11:46;96197.06;;;-2.98;58.24
56142;BME280;42018;48.588;10.836;2024-01-16T05:14:31;96197.63;;;-3.09;57.55
56142;BME280;42018;48.588;10.836;2024-01-16T05:17:17;96193.31;;;-2.95;57.55
56142;BME280;42018;48.588;10.836;2024-01-16T05:20:02;96198.09;;;-2.85;57.11
56142;BME280;42018;48.588;10.836;2024-01-16T05:22:51;96202.69;;;-3.29;58.08
56142;BME280;42018;48.588;10.836;2024-01-16T05:25:37;96200.38;;;-3.52;58.94
56142;BME280;42018;48.588;10.836;2024-01-16T05:28:23;96203.94;;;-3.88;60.19
56142;BME280;42018;48.588;10.836;2024-01-16T05:31:08;96203.19;;;-4.03;60.73
56142;BME280;42018;48.588;10.836;2024-01-16T05:33:54;96199.66;;;-3.67;60.33
56142;BME280;42018;48.588;10.836;2024-01-16T05:36:39;96201.47;;;-3.68;59.71
56142;BME280;42018;48.588;10.836;2024-01-16T05:39:25;96200.19;;;-3.50;59.73
56142;BME280;42018;48.588;10.836;2024-01-16T05:42:11;96201.56;;;-3.82;59.68
56142;BME280;42018;48.588;10.836;2024-01-16T05:44:57;96198.19;;;-3.83;59.43
56142;BME280;42018;48.588;10.836;2024-01-16T05:47:42;96193.47;;;-3.73;59.39
56142;BME280;42018;48.588;10.836;2024-01-16T05:50:28;96181.50;;;-3.74;60.89
56142;BME280;42018;48.588;10.836;2024-01-16T05:53:14;96187.78;;;-3.90;62.08
56142;BME280;42018;48.588;10.836;2024-01-16T05:55:59;96185.94;;;-3.96;63.19
56142;BME280;42018;48.588;10.836;2024-01-16T05:58:46;96185.22;;;-4.11;63.85
56142;BME280;42018;48.588;10.836;2024-01-16T06:01:32;96189.56;;;-3.90;63.85
56142;BME280;42018;48.588;10.836;2024-01-16T06:04:17;96184.66;;;-3.78;63.35
56142;BME280;42018;48.588;10.836;2024-01-16T06:07:03;96170.59;;;-3.69;63.09
56142;BME280;42018;48.588;10.836;2024-01-16T06:09:51;96169.38;;;-3.73;63.64
56142;BME280;42018;48.588;10.836;2024-01-16T06:12:36;96168.22;;;-3.64;63.10
56142;BME280;42018;48.588;10.836;2024-01-16T06:15:22;96164.47;;;-3.62;63.01
56142;BME280;42018;48.588;10.836;2024-01-16T06:18:08;96165.34;;;-3.48;62.16
56142;BME280;42018;48.588;10.836;2024-01-16T06:20:54;96159.94;;;-3.53;62.21
56142;BME280;42018;48.588;10.836;2024-01-16T06:23:39;96172.66;;;-3.58;62.39
56142;BME280;42018;48.588;10.836;2024-01-16T06:26:25;96168.69;;;-3.54;62.36
56142;BME280;42018;48.588;10.836;2024-01-16T06:29:11;96170.06;;;-3.58;62.43
56142;BME280;42018;48.588;10.836;2024-01-16T06:31:56;96170.13;;;-3.79;62.94
56142;BME280;42018;48.588;10.836;2024-01-16T06:34:42;96176.41;;;-3.61;62.54
56142;BME280;42018;48.588;10.836;2024-01-16T06:37:28;96176.19;;;-3.66;62.71
56142;BME280;42018;48.588;10.836;2024-01-16T06:40:13;96181.84;;;-3.49;62.16
56142;BME280;42018;48.588;10.836;2024-01-16T06:42:59;96174.00;;;-3.34;61.61
56142;BME280;42018;48.588;10.836;2024-01-16T06:45:45;96179.22;;;-3.21;61.33
56142;BME280;42018;48.588;10.836;2024-01-16T06:48:30;96160.97;;;-3.06;60.95
56142;BME280;42018;48.588;10.836;2024-01-16T06:51:16;96172.31;;;-3.07;60.97
56142;BME280;42018;48.588;10.836;2024-01-16T06:54:01;96162.22;;;-2.82;60.53
56142;BME280;42018;48.588;10.836;2024-01-16T06:56:47;96165.44;;;-2.73;60.00
56142;BME280;42018;48.588;10.836;2024-01-16T06:59:34;96170.25;;;-2.57;59.49
56142;BME280;42018;48.588;10.836;2024-01-16T07:02:19;96174.78;;;-2.79;60.00
56142;BME280;42018;48.588;10.836;2024-01-16T07:05:05;96167.50;;;-2.49;59.62
56142;BME280;42018;48.588;10.836;2024-01-16T07:07:51;96172.88;;;-2.44;59.10
56142;BME280;42018;48.588;10.836;2024-01-16T07:10:36;96177.66;;;-2.47;59.01
56142;BME280;42018;48.588;10.836;2024-01-16T07:13:22;96186.47;;;-2.42;59.11
56142;BME280;42018;48.588;10.836;2024-01-16T07:16:11;96191.19;;;-2.65;59.91
56142;BME280;42018;48.588;10.836;2024-01-16T07:18:57;96185.25;;;-2.46;58.72
56142;BME280;42018;48.588;10.836;2024-01-16T07:21:43;96191.47;;;-2.33;58.99
56142;BME280;42018;48.588;10.836;2024-01-16T07:24:30;96193.66;;;-2.17;58.88
56142;BME280;42018;48.588;10.836;2024-01-16T07:27:15;96206.44;;;-2.22;58.52
56142;BME280;42018;48.588;10.836;2024-01-16T07:30:01;96208.00;;;-2.28;58.76
56142;BME280;42018;48.588;10.836;2024-01-16T07:32:49;96204.78;;;-2.50;59.09
56142;BME280;42018;48.588;10.836;2024-01-16T07:35:36;96202.38;;;-2.58;59.44
56142;BME280;42018;48.588;10.836;2024-01-16T07:38:22;96205.81;;;-2.44;58.99
56142;BME280;42018;48.588;10.836;2024-01-16T07:41:08;96203.03;;;-2.29;58.88
56142;BME280;42018;48.588;10.836;2024-01-16T07:43:54;96204.81;;;-2.43;59.04
56142;BME280;42018;48.588;10.836;2024-01-16T07:46:40;96206.38;;;-2.55;59.16
56142;BME280;42018;48.588;10.836;2024-01-16T07:49:25;96202.44;;;-2.31;58.91
56142;BME280;42018;48.588;10.836;2024-01-16T07:52:11;96202.44;;;-2.18;58.80
56142;BME280;42018;48.588;10.836;2024-01-16T07:54:57;96192.47;;;-2.08;58.67
56142;BME280;42018;48.588;10.836;2024-01-16T07:57:43;96190.69;;;-1.94;58.08
56142;BME280;42018;48.588;10.836;2024-01-16T08:00:29;96186.28;;;-2.07;57.86
56142;BME280;42018;48.588;10.836;2024-01-16T08:03:14;96180.28;;;-2.21;58.17
56142;BME280;42018;48.588;10.836;2024-01-16T08:06:00;96176.91;;;-2.14;58.09
56142;BME280;42018;48.588;10.836;2024-01-16T08:08:46;96176.13;;;-1.88;57.75
56142;BME280;42018;48.588;10.836;2024-01-16T08:11:31;96178.50;;;-1.94;57.64
56142;BME280;42018;48.588;10.836;2024-01-16T08:14:17;96179.69;;;-1.89;57.47
56142;BME280;42018;48.588;10.836;2024-01-16T08:17:03;96183.50;;;-1.79;57.39
56142;BME280;42018;48.588;10.836;2024-01-16T08:19:49;96177.28;;;-1.71;57.23
56142;BME280;42018;48.588;10.836;2024-01-16T08:22:34;96177.91;;;-1.69;57.21
56142;BME280;42018;48.588;10.836;2024-01-16T08:25:20;96169.69;;;-1.66;57.03
56142;BME280;42018;48.588;10.836;2024-01-16T08:28:05;96176.25;;;-1.57;56.68
56142;BME280;42018;48.588;10.836;2024-01-16T08:30:51;96175.88;;;-1.54;56.32
56142;BME280;42018;48.588;10.836;2024-01-16T08:33:36;96177.63;;;-1.34;56.29
56142;BME280;42018;48.588;10.836;2024-01-16T08:36:22;96172.38;;;-1.21;55.73
56142;BME280;42018;48.588;10.836;2024-01-16T08:39:08;96172.38;;;-1.21;55.51
56142;BME280;42018;48.588;10.836;2024-01-16T08:41:54;96172.59;;;-1.16;55.69
56142;BME280;42018;48.588;10.836;2024-01-16T08:44:40;96177.94;;;-1.04;55.49
56142;BME280;42018;48.588;10.836;2024-01-16T08:47:25;96180.34;;;-1.03;55.35
56142;BME280;42018;48.588;10.836;2024-01-16T08:50:11;96177.13;;;-1.05;55.60
56142;BME280;42018;48.588;10.836;2024-01-16T08:52:57;96181.31;;;-1.04;55.68
56142;BME280;42018;48.588;10.836;2024-01-16T08:55:43;96183.13;;;-0.98;55.35
56142;BME280;42018;48.588;10.836;2024-01-16T08:58:28;96179.56;;;-1.10;55.43
56142;BME280;42018;48.588;10.836;2024-01-16T09:01:14;96175.75;;;-1.14;55.32
56142;BME280;42018;48.588;10.836;2024-01-16T09:04:00;96171.19;;;-1.25;55.58
56142;BME280;42018;48.588;10.836;2024-01-16T09:06:45;96167.41;;;-1.29;55.86
56142;BME280;42018;48.588;10.836;2024-01-16T09:09:31;96168.06;;;-1.54;56.41
56142;BME280;42018;48.588;10.836;2024-01-16T09:12:17;96157.06;;;-1.42;56.46
56142;BME280;42018;48.588;10.836;2024-01-16T09:15:03;96159.31;;;-1.53;56.50
56142;BME280;42018;48.588;10.836;2024-01-16T09:17:49;96161.47;;;-1.43;56.50
56142;BME280;42018;48.588;10.836;2024-01-16T09:20:34;96159.25;;;-1.39;56.56
56142;BME280;42018;48.588;10.836;2024-01-16T09:23:20;96165.06;;;-1.44;56.60
56142;BME280;42018;48.588;10.836;2024-01-16T09:26:06;96166.47;;;-1.48;56.80
56142;BME280;42018;48.588;10.836;2024-01-16T09:31:37;96172.09;;;-1.71;56.91
56142;BME280;42018;48.588;10.836;2024-01-16T09:34:23;96167.50;;;-1.56;57.25
56142;BME280;42018;48.588;10.836;2024-01-16T09:37:08;96178.03;;;-1.37;56.83
56142;BME280;42018;48.588;10.836;2024-01-16T09:39:54;96166.63;;;-1.36;57.09
56142;BME280;42018;48.588;10.836;2024-01-16T09:42:39;96166.56;;;-1.10;56.74
56142;BME280;42018;48.588;10.836;2024-01-16T09:45:26;96167.75;;;-1.06;56.39
56142;BME280;42018;48.588;10.836;2024-01-16T09:48:15;96167.53;;;-1.04;56.44
56142;BME280;42018;48.588;10.836;2024-01-16T09:51:01;96170.06;;;-0.84;56.13
56142;BME280;42018;48.588;10.836;2024-01-16T09:53:46;96167.97;;;-0.69;55.49
56142;BME280;42018;48.588;10.836;2024-01-16T09:56:32;96160.19;;;-0.69;54.87
56142;BME280;42018;48.588;10.836;2024-01-16T09:59:20;96162.13;;;-0.58;55.22
56142;BME280;42018;48.588;10.836;2024-01-16T10:02:10;96158.13;;;-0.29;54.89
56142;BME280;42018;48.588;10.836;2024-01-16T10:04:55;96157.34;;;-0.04;55.03
56142;BME280;42018;48.588;10.836;2024-01-16T10:07:42;96157.84;;;0.11;53.86
56142;BME280;42018;48.588;10.836;2024-01-16T10:10:30;96152.94;;;0.21;54.27
56142;BME280;42018;48.588;10.836;2024-01-16T10:13:17;96152.59;;;0.18;53.83
56142;BME280;42018;48.588;10.836;2024-01-16T10:16:03;96156.75;;;-0.63;54.01
56142;BME280;42018;48.588;10.836;2024-01-16T10:18:49;96158.56;;;-0.32;54.50
56142;BME280;42018;48.588;10.836;2024-01-16T10:21:35;96156.31;;;-0.53;54.16
56142;BME280;42018;48.588;10.836;2024-01-16T10:24:21;96153.88;;;-0.23;54.30
56142;BME280;42018;48.588;10.836;2024-01-16T10:27:07;96144.13;;;-0.03;54.06
56142;BME280;42018;48.588;10.836;2024-01-16T10:29:56;96147.28;;;0.24;53.65
56142;BME280;42018;48.588;10.836;2024-01-16T10:32:42;96151.81;;;0.36;54.22
56142;BME280;42018;48.588;10.836;2024-01-16T10:35:28;96156.38;;;0.40;53.87
56142;BME280;42018;48.588;10.836;2024-01-16T10:38:20;96157.31;;;0.46;53.53
56142;BME280;42018;48.588;10.836;2024-01-16T10:41:14;96154.94;;;0.44;53.93
56142;BME280;42018;48.588;10.836;2024-01-16T10:44:07;96152.41;;;0.56;54.21
56142;BME280;42018;48.588;10.836;2024-01-16T10:47:09;96147.06;;;0.51;54.80
56142;BME280;42018;48.588;10.836;2024-01-16T10:49:56;96146.16;;;0.39;54.51
56142;BME280;42018;48.588;10.836;2024-01-16T10:52:47;96137.19;;;0.35;54.38
56142;BME280;42018;48.588;10.836;2024-01-16T10:55:43;96128.94;;;0.38;54.87
56142;BME280;42018;48.588;10.836;2024-01-16T10:58:36;96125.31;;;0.39;54.72
56142;BME280;42018;48.588;10.836;2024-01-16T11:01:25;96119.84;;;0.47;54.15
56142;BME280;42018;48.588;10.836;2024-01-16T11:04:11;96124.75;;;0.55;54.31
56142;BME280;42018;48.588;10.836;2024-01-16T11:06:57;96129.25;;;0.66;53.98
56142;BME280;42018;48.588;10.836;2024-01-16T11:09:44;96132.78;;;0.54;53.67
56142;BME280;42018;48.588;10.836;2024-01-16T11:12:33;96129.09;;;0.43;53.73
56142;BME280;42018;48.588;10.836;2024-01-16T11:15:19;96131.47;;;0.63;53.45
56142;BME280;42018;48.588;10.836;2024-01-16T11:18:06;96119.34;;;0.75;53.32
56142;BME280;42018;48.588;10.836;2024-01-16T11:20:55;96115.47;;;0.59;53.70
56142;BME280;42018;48.588;10.836;2024-01-16T11:23:41;96115.47;;;0.59;53.25
56142;BME280;42018;48.588;10.836;2024-01-16T11:26:33;96112.50;;;0.74;52.80
56142;BME280;42018;48.588;10.836;2024-01-16T11:32:35;96100.06;;;0.76;53.04
56142;BME280;42018;48.588;10.836;2024-01-16T11:35:40;96098.53;;;0.68;53.12
56142;BME280;42018;48.588;10.836;2024-01-16T11:38:26;96092.16;;;0.83;52.89
56142;BME280;42018;48.588;10.836;2024-01-16T11:44:49;96082.81;;;0.75;52.65
56142;BME280;42018;48.588;10.836;2024-01-16T11:47:39;96080.66;;;0.54;54.09
56142;BME280;42018;48.588;10.836;2024-01-16T11:50:29;96079.28;;;-0.11;54.79
56142;BME280;42018;48.588;10.836;2024-01-16T11:53:32;96081.97;;;0.26;54.91
56142;BME280;42018;48.588;10.836;2024-01-16T12:02:00;96063.13;;;0.42;55.86
56142;BME280;42018;48.588;10.836;2024-01-16T12:04:54;96060.25;;;0.32;55.08
56142;BME280;42018;48.588;10.836;2024-01-16T12:07:50;96055.91;;;0.44;54.75
56142;BME280;42018;48.588;10.836;2024-01-16T12:10:46;96049.13;;;0.74;54.62
56142;BME280;42018;48.588;10.836;2024-01-16T12:13:32;96053.84;;;0.83;54.33
56142;BME280;42018;48.588;10.836;2024-01-16T12:16:19;96056.16;;;1.03;53.96
56142;BME280;42018;48.588;10.836;2024-01-16T12:19:08;96041.44;;;0.97;53.11
56142;BME280;42018;48.588;10.836;2024-01-16T12:21:54;96046.84;;;0.95;53.65
56142;BME280;42018;48.588;10.836;2024-01-16T12:24:42;96039.88;;;1.08;53.45
56142;BME280;42018;48.588;10.836;2024-01-16T12:27:28;96039.88;;;0.59;54.62
56142;BME280;42018;48.588;10.836;2024-01-16T12:30:14;96037.69;;;0.26;56.01
56142;BME280;42018;48.588;10.836;2024-01-16T12:33:09;96030.50;;;0.58;55.58
56142;BME280;42018;48.588;10.836;2024-01-16T12:36:02;96017.09;;;0.85;54.65
56142;BME280;42018;48.588;10.836;2024-01-16T12:38:54;96014.44;;;0.43;54.86
56142;BME280;42018;48.588;10.836;2024-01-16T12:41:42;96021.34;;;0.67;55.17
56142;BME280;42018;48.588;10.836;2024-01-16T12:44:29;96017.50;;;0.70;54.68
56142;BME280;42018;48.588;10.836;2024-01-16T12:47:15;96016.13;;;0.98;54.09
56142;BME280;42018;48.588;10.836;2024-01-16T12:50:01;96015.81;;;1.06;53.59
56142;BME280;42018;48.588;10.836;2024-01-16T12:52:47;96007.44;;;1.04;53.02
56142;BME280;42018;48.588;10.836;2024-01-16T12:55:34;95999.81;;;1.02;53.26
56142;BME280;42018;48.588;10.836;2024-01-16T12:58:21;96007.28;;;0.99;53.70
56142;BME280;42018;48.588;10.836;2024-01-16T13:01:26;95999.59;;;1.04;53.59
56142;BME280;42018;48.588;10.836;2024-01-16T13:04:16;95996.78;;;1.17;52.81
56142;BME280;42018;48.588;10.836;2024-01-16T13:07:02;95987.66;;;0.96;52.53
56142;BME280;42018;48.588;10.836;2024-01-16T13:09:48;95981.78;;;1.01;53.43
56142;BME280;42018;48.588;10.836;2024-01-16T13:12:34;95986.13;;;0.77;53.43
56142;BME280;42018;48.588;10.836;2024-01-16T13:15:21;95986.38;;;1.29;53.01
56142;BME280;42018;48.588;10.836;2024-01-16T13:18:17;95989.34;;;1.56;52.98
56142;BME280;42018;48.588;10.836;2024-01-16T13:21:03;95981.38;;;1.74;52.73
56142;BME280;42018;48.588;10.836;2024-01-16T13:23:49;95972.09;;;1.78;51.91
56142;BME280;42018;48.588;10.836;2024-01-16T13:26:35;95960.16;;;1.71;51.27
56142;BME280;42018;48.588;10.836;2024-01-16T13:29:22;95956.88;;;1.75;51.31
56142;BME280;42018;48.588;10.836;2024-01-16T13:32:08;95962.09;;;1.75;51.04
56142;BME280;42018;48.588;10.836;2024-01-16T13:34:53;95959.28;;;1.65;50.66
56142;BME280;42018;48.588;10.836;2024-01-16T13:37:39;95958.94;;;1.50;50.45
56142;BME280;42018;48.588;10.836;2024-01-16T13:40:26;95964.38;;;1.60;50.87
56142;BME280;42018;48.588;10.836;2024-01-16T13:43:11;95972.44;;;1.70;51.00
56142;BME280;42018;48.588;10.836;2024-01-16T13:45:57;95973.47;;;1.69;51.23
56142;BME280;42018;48.588;10.836;2024-01-16T13:48:43;95968.69;;;1.66;50.95
56142;BME280;42018;48.588;10.836;2024-01-16T13:51:28;95974.13;;;1.76;51.26
56142;BME280;42018;48.588;10.836;2024-01-16T13:54:14;95967.75;;;1.84;51.05
56142;BME280;42018;48.588;10.836;2024-01-16T13:57:00;95960.03;;;1.77;50.15
56142;BME280;42018;48.588;10.836;2024-01-16T13:59:46;95958.81;;;1.68;50.19
56142;BME280;42018;48.588;10.836;2024-01-16T14:02:31;95960.16;;;1.71;50.21
56142;BME280;42018;48.588;10.836;2024-01-16T14:05:18;95961.78;;;1.72;51.56
56142;BME280;42018;48.588;10.836;2024-01-16T14:08:04;95956.88;;;1.75;51.26
56142;BME280;42018;48.588;10.836;2024-01-16T14:10:50;95958.47;;;1.76;51.80
56142;BME280;42018;48.588;10.836;2024-01-16T14:13:36;95948.59;;;1.78;51.36
56142;BME280;42018;48.588;10.836;2024-01-16T14:16:22;95945.66;;;1.75;51.60
56142;BME280;42018;48.588;10.836;2024-01-16T14:19:08;95944.03;;;1.74;51.45
56142;BME280;42018;48.588;10.836;2024-01-16T14:21:53;95950.06;;;1.74;51.34
56142;BME280;42018;48.588;10.836;2024-01-16T14:24:39;95948.13;;;1.81;51.63
56142;BME280;42018;48.588;10.836;2024-01-16T14:27:25;95936.34;;;1.79;51.84
56142;BME280;42018;48.588;10.836;2024-01-16T14:30:12;95937.81;;;1.75;52.12
56142;BME280;42018;48.588;10.836;2024-01-16T14:35:44;95934.50;;;1.79;52.17
56142;BME280;42018;48.588;10.836;2024-01-16T14:38:30;95943.22;;;1.85;51.78
56142;BME280;42018;48.588;10.836;2024-01-16T14:41:15;95937.91;;;1.80;51.82
56142;BME280;42018;48.588;10.836;2024-01-16T14:44:02;95943.47;;;1.60;51.65
56142;BME280;42018;48.588;10.836;2024-01-16T14:46:47;95940.31;;;1.34;52.58
56142;BME280;42018;48.588;10.836;2024-01-16T14:49:33;95932.03;;;1.49;52.31
56142;BME280;42018;48.588;10.836;2024-01-16T14:52:19;95935.91;;;1.47;52.74
56142;BME280;42018;48.588;10.836;2024-01-16T14:55:05;95938.41;;;1.53;52.86
56142;BME280;42018;48.588;10.836;2024-01-16T14:57:52;95933.97;;;1.54;52.47